MYTBM LIML-LIPQ
Flight info
| Callsign | MYTBM |
|---|---|
| Flight time | 0h 49m |
| Altitude | 28000 |
| Route | ELTAR DCT ADOSA DCT RCH |
| Aircraft | TBM8/L-SDFGRWY/S |
Departure
| Time | 2026-04-23 06:36 |
|---|---|
| Airport | Milano Linate Airport (LIML) |
Arrival
| Time | 2026-04-23 07:25 |
|---|---|
| Airport | Trieste Airport (LIPQ) |
| Time | Latitude | Longitude | Altitude | Speed | Heading |
|---|---|---|---|---|---|
| 2026-04-23 06:23 | 45.45395 | 9.26377 | 355 ft | 0 kts | 40° |
| 2026-04-23 06:30 | 45.45399 | 9.26379 | 355 ft | 4 kts | 359° |
| 2026-04-23 06:30 | 45.45412 | 9.26299 | 358 ft | 14 kts | 300° |
| 2026-04-23 06:31 | 45.45509 | 9.26226 | 361 ft | 16 kts | 334° |
| 2026-04-23 06:31 | 45.45614 | 9.26161 | 354 ft | 18 kts | 357° |
| 2026-04-23 06:31 | 45.45750 | 9.26147 | 354 ft | 22 kts | 356° |
| 2026-04-23 06:31 | 45.45913 | 9.26212 | 358 ft | 26 kts | 35° |
| 2026-04-23 06:32 | 45.46036 | 9.26394 | 357 ft | 25 kts | 61° |
| 2026-04-23 06:32 | 45.46066 | 9.26629 | 354 ft | 24 kts | 90° |
| 2026-04-23 06:32 | 45.46065 | 9.26860 | 354 ft | 23 kts | 90° |
| 2026-04-23 06:32 | 45.46042 | 9.27080 | 354 ft | 22 kts | 105° |
| 2026-04-23 06:33 | 45.46017 | 9.27295 | 354 ft | 22 kts | 88° |
| 2026-04-23 06:33 | 45.46016 | 9.27510 | 354 ft | 22 kts | 90° |
| 2026-04-23 06:33 | 45.45977 | 9.27697 | 357 ft | 20 kts | 128° |
| 2026-04-23 06:33 | 45.45909 | 9.27825 | 354 ft | 7 kts | 96° |
| 2026-04-23 06:34 | 45.45908 | 9.27923 | 354 ft | 14 kts | 90° |
| 2026-04-23 06:34 | 45.45813 | 9.27984 | 355 ft | 22 kts | 181° |
| 2026-04-23 06:34 | 45.45637 | 9.27980 | 355 ft | 28 kts | 180° |
| 2026-04-23 06:34 | 45.45463 | 9.27977 | 355 ft | 13 kts | 184° |
| 2026-04-23 06:35 | 45.45458 | 9.27886 | 355 ft | 13 kts | 272° |
| 2026-04-23 06:35 | 45.45418 | 9.27740 | 358 ft | 19 kts | 229° |
| 2026-04-23 06:35 | 45.45348 | 9.27617 | 353 ft | 14 kts | 178° |
| 2026-04-23 06:35 | 45.45102 | 9.27643 | 353 ft | 63 kts | 176° |
| 2026-04-23 06:36 | 45.44496 | 9.27702 | 393 ft | 106 kts | 174° |
| 2026-04-23 06:36 | 45.43697 | 9.27783 | 671 ft | 124 kts | 173° |
| 2026-04-23 06:36 | 45.42808 | 9.27887 | 1056 ft | 134 kts | 176° |
| 2026-04-23 06:36 | 45.41873 | 9.27982 | 1584 ft | 134 kts | 175° |
| 2026-04-23 06:37 | 45.40941 | 9.28077 | 2155 ft | 134 kts | 175° |
| 2026-04-23 06:37 | 45.40011 | 9.28212 | 2684 ft | 136 kts | 163° |
| 2026-04-23 06:37 | 45.39391 | 9.29150 | 3222 ft | 136 kts | 107° |
| 2026-04-23 06:37 | 45.39384 | 9.30476 | 3751 ft | 137 kts | 71° |
| 2026-04-23 06:38 | 45.39690 | 9.31774 | 4242 ft | 141 kts | 71° |
| 2026-04-23 06:38 | 45.39973 | 9.33100 | 4758 ft | 142 kts | 71° |
| 2026-04-23 06:38 | 45.40244 | 9.34456 | 5289 ft | 143 kts | 71° |
| 2026-04-23 06:38 | 45.40513 | 9.35822 | 5791 ft | 143 kts | 71° |
| 2026-04-23 06:39 | 45.40784 | 9.37195 | 6268 ft | 147 kts | 72° |
| 2026-04-23 06:39 | 45.41060 | 9.38619 | 6744 ft | 150 kts | 72° |
| 2026-04-23 06:39 | 45.41342 | 9.40048 | 7244 ft | 150 kts | 72° |
| 2026-04-23 06:39 | 45.41623 | 9.41475 | 7742 ft | 150 kts | 72° |
| 2026-04-23 06:40 | 45.41905 | 9.42905 | 8241 ft | 150 kts | 72° |
| 2026-04-23 06:40 | 45.42182 | 9.44317 | 8724 ft | 150 kts | 72° |
| 2026-04-23 06:40 | 45.42462 | 9.45745 | 9229 ft | 150 kts | 72° |
| 2026-04-23 06:40 | 45.42743 | 9.47174 | 9720 ft | 150 kts | 72° |
| 2026-04-23 06:41 | 45.43023 | 9.48607 | 10215 ft | 150 kts | 72° |
| 2026-04-23 06:41 | 45.43305 | 9.50044 | 10660 ft | 150 kts | 71° |
| 2026-04-23 06:41 | 45.43587 | 9.51482 | 11102 ft | 151 kts | 71° |
| 2026-04-23 06:41 | 45.43869 | 9.52923 | 11545 ft | 151 kts | 71° |
| 2026-04-23 06:42 | 45.44150 | 9.54364 | 12000 ft | 151 kts | 71° |
| 2026-04-23 06:42 | 45.44432 | 9.55807 | 12446 ft | 151 kts | 71° |
| 2026-04-23 06:42 | 45.44711 | 9.57233 | 12887 ft | 152 kts | 71° |
| 2026-04-23 06:42 | 45.44992 | 9.58681 | 13328 ft | 152 kts | 71° |
| 2026-04-23 06:43 | 45.45278 | 9.60142 | 13715 ft | 155 kts | 71° |
| 2026-04-23 06:43 | 45.45566 | 9.61634 | 14149 ft | 156 kts | 71° |
| 2026-04-23 06:43 | 45.45858 | 9.63125 | 14550 ft | 156 kts | 71° |
| 2026-04-23 06:43 | 45.46148 | 9.64619 | 14939 ft | 157 kts | 71° |
| 2026-04-23 06:44 | 45.46439 | 9.66112 | 15329 ft | 157 kts | 71° |
| 2026-04-23 06:44 | 45.46730 | 9.67613 | 15722 ft | 157 kts | 72° |
| 2026-04-23 06:44 | 45.47021 | 9.69115 | 16117 ft | 157 kts | 72° |
| 2026-04-23 06:44 | 45.47314 | 9.70620 | 16509 ft | 158 kts | 72° |
| 2026-04-23 06:45 | 45.47605 | 9.72129 | 16897 ft | 158 kts | 72° |
| 2026-04-23 06:45 | 45.47898 | 9.73643 | 17284 ft | 159 kts | 72° |
| 2026-04-23 06:45 | 45.48193 | 9.75164 | 17677 ft | 159 kts | 73° |
| 2026-04-23 06:45 | 45.48487 | 9.76686 | 18092 ft | 159 kts | 72° |
| 2026-04-23 06:46 | 45.48782 | 9.78216 | 18475 ft | 160 kts | 72° |
| 2026-04-23 06:46 | 45.49078 | 9.79747 | 18823 ft | 160 kts | 72° |
| 2026-04-23 06:46 | 45.49373 | 9.81280 | 19165 ft | 160 kts | 73° |
| 2026-04-23 06:46 | 45.49668 | 9.82811 | 19507 ft | 160 kts | 73° |
| 2026-04-23 06:47 | 45.49959 | 9.84322 | 19842 ft | 160 kts | 73° |
| 2026-04-23 06:47 | 45.50254 | 9.85853 | 20180 ft | 160 kts | 73° |
| 2026-04-23 06:47 | 45.50548 | 9.87382 | 20520 ft | 160 kts | 74° |
| 2026-04-23 06:47 | 45.50842 | 9.88912 | 20855 ft | 160 kts | 74° |
| 2026-04-23 06:48 | 45.51135 | 9.90441 | 21187 ft | 160 kts | 74° |
| 2026-04-23 06:48 | 45.51428 | 9.91969 | 21513 ft | 160 kts | 75° |
| 2026-04-23 06:48 | 45.51721 | 9.93497 | 21847 ft | 160 kts | 75° |
| 2026-04-23 06:48 | 45.52014 | 9.95028 | 22179 ft | 160 kts | 75° |
| 2026-04-23 06:49 | 45.52307 | 9.96558 | 22501 ft | 160 kts | 75° |
| 2026-04-23 06:49 | 45.52599 | 9.98087 | 22836 ft | 160 kts | 75° |
| 2026-04-23 06:49 | 45.52888 | 9.99595 | 23148 ft | 160 kts | 76° |
| 2026-04-23 06:49 | 45.53180 | 10.01128 | 23465 ft | 160 kts | 76° |
| 2026-04-23 06:50 | 45.53473 | 10.02662 | 23772 ft | 160 kts | 75° |
| 2026-04-23 06:50 | 45.53765 | 10.04198 | 24044 ft | 161 kts | 75° |
| 2026-04-23 06:50 | 45.54058 | 10.05740 | 24287 ft | 162 kts | 76° |
| 2026-04-23 06:50 | 45.54353 | 10.07295 | 24532 ft | 163 kts | 76° |
| 2026-04-23 06:51 | 45.54651 | 10.08859 | 24765 ft | 164 kts | 76° |
| 2026-04-23 06:51 | 45.54849 | 10.09901 | 24931 ft | 165 kts | 76° |
| 2026-04-23 06:51 | 45.55151 | 10.11488 | 25168 ft | 166 kts | 76° |
| 2026-04-23 06:51 | 45.55453 | 10.13085 | 25408 ft | 167 kts | 76° |
| 2026-04-23 06:52 | 45.55759 | 10.14695 | 25645 ft | 168 kts | 76° |
| 2026-04-23 06:52 | 45.56166 | 10.16844 | 25955 ft | 170 kts | 76° |
| 2026-04-23 06:52 | 45.56475 | 10.18479 | 26190 ft | 171 kts | 76° |
| 2026-04-23 06:52 | 45.56684 | 10.19587 | 26356 ft | 171 kts | 76° |
| 2026-04-23 06:53 | 45.56990 | 10.21206 | 26604 ft | 172 kts | 76° |
| 2026-04-23 06:53 | 45.57302 | 10.22858 | 26829 ft | 173 kts | 76° |
| 2026-04-23 06:53 | 45.57616 | 10.24525 | 27052 ft | 174 kts | 76° |
| 2026-04-23 06:53 | 45.57933 | 10.26209 | 27267 ft | 176 kts | 76° |
| 2026-04-23 06:54 | 45.58250 | 10.27893 | 27505 ft | 176 kts | 76° |
| 2026-04-23 06:54 | 45.58568 | 10.29584 | 27734 ft | 177 kts | 76° |
| 2026-04-23 06:54 | 45.58888 | 10.31286 | 27961 ft | 178 kts | 76° |
| 2026-04-23 06:54 | 45.59216 | 10.33042 | 27972 ft | 187 kts | 76° |
| 2026-04-23 06:55 | 45.59554 | 10.34864 | 27990 ft | 197 kts | 76° |
| 2026-04-23 06:55 | 45.59917 | 10.36810 | 27989 ft | 207 kts | 76° |
| 2026-04-23 06:55 | 45.60297 | 10.38847 | 27983 ft | 217 kts | 76° |
| 2026-04-23 06:55 | 45.60694 | 10.40967 | 27986 ft | 225 kts | 76° |
| 2026-04-23 06:56 | 45.61102 | 10.43156 | 27976 ft | 231 kts | 76° |
| 2026-04-23 06:56 | 45.61521 | 10.45401 | 27975 ft | 237 kts | 76° |
| 2026-04-23 06:56 | 45.61949 | 10.47707 | 27981 ft | 243 kts | 76° |
| 2026-04-23 06:56 | 45.62387 | 10.50065 | 27974 ft | 248 kts | 76° |
| 2026-04-23 06:57 | 45.62832 | 10.52461 | 27968 ft | 252 kts | 76° |
| 2026-04-23 06:57 | 45.63283 | 10.54893 | 27974 ft | 254 kts | 76° |
| 2026-04-23 06:57 | 45.63733 | 10.57317 | 27974 ft | 256 kts | 76° |
| 2026-04-23 06:57 | 45.64190 | 10.59796 | 27972 ft | 259 kts | 76° |
| 2026-04-23 06:58 | 45.64644 | 10.62300 | 27960 ft | 261 kts | 78° |
| 2026-04-23 06:58 | 45.64746 | 10.64891 | 27966 ft | 263 kts | 90° |
| 2026-04-23 06:58 | 45.64706 | 10.67516 | 27966 ft | 263 kts | 89° |
| 2026-04-23 06:58 | 45.64690 | 10.70139 | 27971 ft | 264 kts | 89° |
| 2026-04-23 06:59 | 45.64677 | 10.72769 | 27971 ft | 264 kts | 89° |
| 2026-04-23 06:59 | 45.64660 | 10.75394 | 27972 ft | 264 kts | 89° |
| 2026-04-23 06:59 | 45.64640 | 10.77986 | 27973 ft | 264 kts | 89° |
| 2026-04-23 06:59 | 45.64621 | 10.80611 | 27975 ft | 264 kts | 89° |
| 2026-04-23 07:00 | 45.64601 | 10.83247 | 27968 ft | 266 kts | 89° |
| 2026-04-23 07:00 | 45.64580 | 10.85895 | 27968 ft | 266 kts | 89° |
| 2026-04-23 07:00 | 45.64560 | 10.88547 | 27968 ft | 267 kts | 89° |
| 2026-04-23 07:00 | 45.64536 | 10.91205 | 27966 ft | 267 kts | 89° |
| 2026-04-23 07:01 | 45.64513 | 10.93852 | 27963 ft | 266 kts | 89° |
| 2026-04-23 07:01 | 45.64489 | 10.96497 | 27961 ft | 266 kts | 89° |
| 2026-04-23 07:01 | 45.64467 | 10.99144 | 27961 ft | 266 kts | 89° |
| 2026-04-23 07:01 | 45.64442 | 11.01785 | 27970 ft | 266 kts | 89° |
| 2026-04-23 07:02 | 45.64467 | 11.04417 | 27959 ft | 264 kts | 84° |
| 2026-04-23 07:02 | 45.64760 | 11.07002 | 27952 ft | 263 kts | 79° |
| 2026-04-23 07:02 | 45.65103 | 11.09566 | 27945 ft | 263 kts | 80° |
| 2026-04-23 07:02 | 45.65353 | 11.12153 | 27958 ft | 263 kts | 83° |
| 2026-04-23 07:03 | 45.65570 | 11.14761 | 27950 ft | 263 kts | 82° |
| 2026-04-23 07:03 | 45.65805 | 11.17314 | 27954 ft | 262 kts | 82° |
| 2026-04-23 07:03 | 45.66052 | 11.19903 | 27947 ft | 263 kts | 82° |
| 2026-04-23 07:03 | 45.66293 | 11.22488 | 27948 ft | 262 kts | 82° |
| 2026-04-23 07:04 | 45.66531 | 11.25084 | 27939 ft | 263 kts | 82° |
| 2026-04-23 07:04 | 45.66771 | 11.27682 | 27944 ft | 264 kts | 82° |
| 2026-04-23 07:04 | 45.67011 | 11.30283 | 27940 ft | 264 kts | 82° |
| 2026-04-23 07:04 | 45.67249 | 11.32874 | 27937 ft | 263 kts | 82° |
| 2026-04-23 07:05 | 45.67486 | 11.35470 | 27948 ft | 263 kts | 82° |
| 2026-04-23 07:05 | 45.67723 | 11.38072 | 27942 ft | 264 kts | 82° |
| 2026-04-23 07:05 | 45.67959 | 11.40645 | 27939 ft | 264 kts | 82° |
| 2026-04-23 07:05 | 45.68195 | 11.43243 | 27938 ft | 263 kts | 82° |
| 2026-04-23 07:06 | 45.68430 | 11.45838 | 27934 ft | 263 kts | 82° |
| 2026-04-23 07:06 | 45.68664 | 11.48435 | 27937 ft | 263 kts | 82° |
| 2026-04-23 07:06 | 45.68899 | 11.51030 | 27937 ft | 263 kts | 82° |
| 2026-04-23 07:06 | 45.69133 | 11.53625 | 27938 ft | 263 kts | 82° |
| 2026-04-23 07:07 | 45.69364 | 11.56214 | 27936 ft | 263 kts | 82° |
| 2026-04-23 07:07 | 45.69598 | 11.58806 | 27932 ft | 263 kts | 82° |
| 2026-04-23 07:07 | 45.69829 | 11.61400 | 27937 ft | 263 kts | 82° |
| 2026-04-23 07:07 | 45.70059 | 11.63990 | 27938 ft | 263 kts | 82° |
| 2026-04-23 07:08 | 45.70289 | 11.66582 | 27942 ft | 262 kts | 82° |
| 2026-04-23 07:08 | 45.70519 | 11.69171 | 27934 ft | 263 kts | 82° |
| 2026-04-23 07:08 | 45.70745 | 11.71731 | 27937 ft | 262 kts | 82° |
| 2026-04-23 07:08 | 45.70973 | 11.74324 | 27938 ft | 262 kts | 82° |
| 2026-04-23 07:09 | 45.71201 | 11.76913 | 27909 ft | 263 kts | 82° |
| 2026-04-23 07:09 | 45.71435 | 11.79584 | 27441 ft | 277 kts | 82° |
| 2026-04-23 07:09 | 45.71676 | 11.82353 | 26981 ft | 282 kts | 82° |
| 2026-04-23 07:09 | 45.71918 | 11.85141 | 26537 ft | 283 kts | 82° |
| 2026-04-23 07:10 | 45.72160 | 11.87936 | 26076 ft | 283 kts | 81° |
| 2026-04-23 07:10 | 45.72403 | 11.90739 | 25635 ft | 284 kts | 81° |
| 2026-04-23 07:10 | 45.72645 | 11.93554 | 25196 ft | 285 kts | 81° |
| 2026-04-23 07:10 | 45.72888 | 11.96380 | 24763 ft | 287 kts | 81° |
| 2026-04-23 07:11 | 45.73130 | 11.99214 | 24340 ft | 288 kts | 81° |
| 2026-04-23 07:11 | 45.73375 | 12.02068 | 23920 ft | 289 kts | 81° |
| 2026-04-23 07:11 | 45.73620 | 12.04932 | 23430 ft | 292 kts | 81° |
| 2026-04-23 07:12 | 45.74108 | 12.10713 | 22454 ft | 296 kts | 81° |
| 2026-04-23 07:12 | 45.74357 | 12.13646 | 21975 ft | 298 kts | 81° |
| 2026-04-23 07:12 | 45.74605 | 12.16597 | 21505 ft | 300 kts | 81° |
| 2026-04-23 07:12 | 45.74839 | 12.19571 | 21049 ft | 302 kts | 82° |
| 2026-04-23 07:13 | 45.75074 | 12.22564 | 20591 ft | 303 kts | 81° |
| 2026-04-23 07:13 | 45.75355 | 12.25561 | 20155 ft | 305 kts | 80° |
| 2026-04-23 07:13 | 45.75615 | 12.28589 | 19713 ft | 307 kts | 81° |
| 2026-04-23 07:13 | 45.75853 | 12.31630 | 19276 ft | 308 kts | 81° |
| 2026-04-23 07:14 | 45.76104 | 12.34679 | 18845 ft | 308 kts | 81° |
| 2026-04-23 07:14 | 45.76360 | 12.37726 | 18397 ft | 308 kts | 81° |
| 2026-04-23 07:14 | 45.76609 | 12.40776 | 17908 ft | 308 kts | 81° |
| 2026-04-23 07:14 | 45.76856 | 12.43815 | 17427 ft | 307 kts | 81° |
| 2026-04-23 07:15 | 45.77105 | 12.46841 | 16954 ft | 306 kts | 81° |
| 2026-04-23 07:15 | 45.77350 | 12.49861 | 16484 ft | 304 kts | 81° |
| 2026-04-23 07:15 | 45.77590 | 12.52835 | 16035 ft | 303 kts | 81° |
| 2026-04-23 07:15 | 45.77833 | 12.55833 | 15580 ft | 302 kts | 80° |
| 2026-04-23 07:16 | 45.78072 | 12.58812 | 15134 ft | 300 kts | 80° |
| 2026-04-23 07:16 | 45.78312 | 12.61774 | 14694 ft | 299 kts | 80° |
| 2026-04-23 07:16 | 45.78546 | 12.64724 | 14260 ft | 297 kts | 80° |
| 2026-04-23 07:16 | 45.78780 | 12.67662 | 13809 ft | 296 kts | 80° |
| 2026-04-23 07:17 | 45.79013 | 12.70578 | 13309 ft | 293 kts | 80° |
| 2026-04-23 07:17 | 45.79232 | 12.73435 | 12813 ft | 290 kts | 80° |
| 2026-04-23 07:17 | 45.79463 | 12.76290 | 12316 ft | 287 kts | 80° |
| 2026-04-23 07:17 | 45.79688 | 12.79114 | 11827 ft | 284 kts | 80° |
| 2026-04-23 07:18 | 45.79906 | 12.81928 | 11346 ft | 282 kts | 80° |
| 2026-04-23 07:18 | 45.80128 | 12.84715 | 10872 ft | 280 kts | 80° |
| 2026-04-23 07:18 | 45.80338 | 12.87477 | 10406 ft | 278 kts | 81° |
| 2026-04-23 07:18 | 45.80553 | 12.90221 | 9921 ft | 276 kts | 80° |
| 2026-04-23 07:19 | 45.80766 | 12.92909 | 9420 ft | 274 kts | 81° |
| 2026-04-23 07:19 | 45.80977 | 12.95622 | 8919 ft | 273 kts | 81° |
| 2026-04-23 07:19 | 45.81184 | 12.98325 | 8426 ft | 273 kts | 81° |
| 2026-04-23 07:19 | 45.81381 | 13.01021 | 7915 ft | 270 kts | 82° |
| 2026-04-23 07:20 | 45.81582 | 13.03684 | 7406 ft | 267 kts | 82° |
| 2026-04-23 07:20 | 45.81796 | 13.06320 | 6911 ft | 266 kts | 82° |
| 2026-04-23 07:20 | 45.81999 | 13.08956 | 6408 ft | 265 kts | 82° |
| 2026-04-23 07:20 | 45.82190 | 13.11577 | 5886 ft | 263 kts | 83° |
| 2026-04-23 07:21 | 45.82389 | 13.14177 | 5386 ft | 261 kts | 83° |
| 2026-04-23 07:21 | 45.82585 | 13.16758 | 4881 ft | 259 kts | 83° |
| 2026-04-23 07:21 | 45.82751 | 13.19215 | 4385 ft | 236 kts | 84° |
| 2026-04-23 07:21 | 45.82881 | 13.21491 | 3908 ft | 223 kts | 86° |
| 2026-04-23 07:22 | 45.82910 | 13.23677 | 3469 ft | 216 kts | 90° |
| 2026-04-23 07:22 | 45.82888 | 13.25788 | 3040 ft | 212 kts | 91° |
| 2026-04-23 07:22 | 45.82839 | 13.27901 | 2638 ft | 212 kts | 92° |
| 2026-04-23 07:22 | 45.82804 | 13.30020 | 2197 ft | 212 kts | 90° |
| 2026-04-23 07:23 | 45.82800 | 13.32080 | 1830 ft | 194 kts | 90° |
| 2026-04-23 07:23 | 45.82790 | 13.33899 | 1597 ft | 175 kts | 90° |
| 2026-04-23 07:23 | 45.82792 | 13.35576 | 1419 ft | 164 kts | 87° |
| 2026-04-23 07:23 | 45.82823 | 13.37200 | 1178 ft | 161 kts | 89° |
| 2026-04-23 07:24 | 45.82829 | 13.38772 | 947 ft | 159 kts | 89° |
| 2026-04-23 07:24 | 45.82811 | 13.40333 | 710 ft | 150 kts | 91° |
| 2026-04-23 07:24 | 45.82785 | 13.41722 | 532 ft | 133 kts | 89° |
| 2026-04-23 07:24 | 45.82803 | 13.42899 | 364 ft | 105 kts | 89° |
| 2026-04-23 07:25 | 45.82804 | 13.43908 | 227 ft | 99 kts | 89° |
| 2026-04-23 07:25 | 45.82800 | 13.44871 | 91 ft | 91 kts | 92° |
| 2026-04-23 07:25 | 45.82793 | 13.45674 | 44 ft | 69 kts | 90° |
| 2026-04-23 07:25 | 45.82788 | 13.46197 | 40 ft | 41 kts | 91° |
| 2026-04-23 07:26 | 45.82786 | 13.46579 | 39 ft | 39 kts | 92° |
| 2026-04-23 07:26 | 45.82785 | 13.46963 | 41 ft | 40 kts | 89° |
| 2026-04-23 07:26 | 45.82782 | 13.47365 | 43 ft | 40 kts | 88° |
| 2026-04-23 07:26 | 45.82770 | 13.47626 | 43 ft | 16 kts | 121° |
| 2026-04-23 07:27 | 45.82685 | 13.47742 | 42 ft | 19 kts | 140° |
| 2026-04-23 07:27 | 45.82569 | 13.47880 | 42 ft | 24 kts | 140° |
| 2026-04-23 07:27 | 45.82444 | 13.48030 | 42 ft | 21 kts | 140° |
| 2026-04-23 07:27 | 45.82335 | 13.48164 | 42 ft | 17 kts | 137° |
| 2026-04-23 07:28 | 45.82264 | 13.48210 | 42 ft | 10 kts | 202° |
| 2026-04-23 07:28 | 45.82242 | 13.48136 | 42 ft | 4 kts | 329° |
| 2026-04-23 07:28 | 45.82273 | 13.48128 | 42 ft | 6 kts | 349° |
| 2026-04-23 07:28 | 45.82284 | 13.48125 | 42 ft | 0 kts | 349° |